Airport View

Enter AWOS ICAO identifier for current METAR.

ex. KFNL

KGEV 262335Z AUTO 27011G16KT 10SM BKN040 OVC065 01/M05 A2990 RMK AO2 T00061048

26 Jan 2020 23:31

Frequency: 120.675

Phone: 336-982-5555

Other Area AWOS: KTNB - KUKF - KMKJ - KVJI

TAF AMD KHKY 262032Z 2621/2718 28010KT P6SM SCT060 BKN150 FM270300 24003KT P6SM SCT050 BKN120 FM270900 VRB02KT 5SM BR OVC050 FM271000 25003KT 5SM BR VCSH SCT025 OVC040 PROB30 2712/2718 2SM -SHRA BR SCT015 OVC025